createdAt,value
2023-05-11T00:00:31.531Z,15.10
2023-05-11T00:01:06.039Z,15.10
2023-05-11T00:01:38.549Z,15.10
2023-05-11T00:02:12.808Z,15.20
2023-05-11T00:02:46.467Z,15.10
2023-05-11T00:03:19.297Z,15.10
2023-05-11T00:03:52.079Z,15.10
2023-05-11T00:04:24.853Z,15.10
2023-05-11T00:04:58.598Z,15.10
2023-05-11T00:05:31.337Z,15.10
2023-05-11T00:06:05.152Z,15.10
2023-05-11T00:06:38.057Z,15.10
2023-05-11T00:07:10.720Z,15.10
2023-05-11T00:07:43.384Z,15.00
2023-05-11T00:08:17.578Z,15.10
2023-05-11T00:08:51.976Z,15.00
2023-05-11T00:09:24.578Z,15.00
2023-05-11T00:09:58.215Z,15.00
2023-05-11T00:10:31.210Z,15.00
2023-05-11T00:11:07.465Z,15.00
2023-05-11T00:11:41.167Z,15.00
2023-05-11T00:12:14.289Z,15.00
2023-05-11T00:12:46.815Z,15.00
2023-05-11T00:13:21.748Z,15.00
2023-05-11T00:13:55.746Z,15.00
2023-05-11T00:14:28.440Z,15.00
2023-05-11T00:15:02.074Z,15.00
2023-05-11T00:15:38.325Z,15.00
2023-05-11T00:16:11.440Z,15.00
2023-05-11T00:16:45.181Z,15.00
2023-05-11T00:17:19.573Z,15.00
2023-05-11T00:17:52.157Z,15.00
2023-05-11T00:18:25.976Z,15.00
2023-05-11T00:18:58.721Z,15.00
2023-05-11T00:19:31.790Z,15.00
2023-05-11T00:20:06.408Z,15.00
2023-05-11T00:20:38.962Z,15.00
2023-05-11T00:21:11.530Z,14.90
2023-05-11T00:21:45.274Z,14.90
2023-05-11T00:22:18.035Z,14.90
2023-05-11T00:22:50.599Z,14.90
2023-05-11T00:23:23.239Z,14.90
2023-05-11T00:23:57.127Z,14.90
2023-05-11T00:24:30.054Z,14.90
2023-05-11T00:25:02.740Z,14.90
2023-05-11T00:25:36.482Z,14.90
2023-05-11T00:26:09.101Z,14.90
2023-05-11T00:26:42.371Z,14.90
2023-05-11T00:27:15.943Z,14.90
2023-05-11T00:27:48.737Z,14.90
2023-05-11T00:28:21.330Z,14.90
2023-05-11T00:28:57.542Z,14.90
2023-05-11T00:29:30.112Z,14.90
2023-05-11T00:30:02.754Z,14.90
2023-05-11T00:30:36.484Z,14.80
2023-05-11T00:31:09.114Z,14.90
2023-05-11T00:31:42.267Z,14.80
2023-05-11T00:32:15.912Z,14.90
2023-05-11T00:32:49.288Z,14.90
2023-05-11T00:33:22.338Z,14.90
2023-05-11T00:33:56.762Z,14.80
2023-05-11T00:34:30.360Z,14.90
2023-05-11T00:35:03.024Z,14.90
2023-05-11T00:35:36.500Z,14.90
2023-05-11T00:36:10.421Z,14.90
2023-05-11T00:36:43.716Z,14.80
2023-05-11T00:37:16.295Z,14.90
2023-05-11T00:37:49.859Z,14.90
2023-05-11T00:38:22.359Z,14.80
2023-05-11T00:38:55.328Z,14.90
2023-05-11T00:39:28.999Z,14.90
2023-05-11T00:40:01.631Z,14.90
2023-05-11T00:40:34.496Z,14.90
2023-05-11T00:41:07.397Z,14.90
2023-05-11T00:41:41.345Z,14.90
2023-05-11T00:42:14.035Z,14.80
2023-05-11T00:42:46.608Z,14.90
2023-05-11T00:43:20.149Z,14.80
2023-05-11T00:43:52.739Z,14.90
2023-05-11T00:44:27.069Z,14.90
2023-05-11T00:45:00.604Z,14.90
2023-05-11T00:45:33.490Z,14.90
2023-05-11T00:46:06.855Z,14.80
2023-05-11T00:46:40.792Z,14.90
2023-05-11T00:47:13.744Z,14.80
2023-05-11T00:47:46.901Z,14.80
2023-05-11T00:48:20.600Z,14.80
2023-05-11T00:48:55.792Z,14.80
2023-05-11T00:49:28.734Z,14.80
2023-05-11T00:50:02.519Z,14.80
2023-05-11T00:50:35.388Z,14.80
2023-05-11T00:51:08.254Z,14.80
2023-05-11T00:51:42.029Z,14.80
2023-05-11T00:52:14.917Z,14.80
2023-05-11T00:52:48.460Z,14.80
2023-05-11T00:53:22.253Z,14.80
2023-05-11T00:53:54.871Z,14.80
2023-05-11T00:54:27.886Z,14.80
2023-05-11T00:55:00.816Z,14.80
2023-05-11T00:55:34.465Z,14.80
2023-05-11T00:56:07.614Z,14.80
2023-05-11T00:56:40.636Z,14.80
2023-05-11T00:57:14.439Z,14.80
2023-05-11T00:57:47.476Z,14.80
2023-05-11T00:58:20.813Z,14.80
2023-05-11T00:58:54.498Z,14.80
2023-05-11T00:59:28.516Z,14.80
2023-05-11T01:00:02.844Z,14.80
2023-05-11T01:00:36.856Z,14.80
2023-05-11T01:01:10.603Z,14.80
2023-05-11T01:01:43.950Z,14.80
2023-05-11T01:02:17.744Z,14.70
2023-05-11T01:02:50.450Z,14.80
2023-05-11T01:03:23.203Z,14.80
2023-05-11T01:03:58.004Z,14.80
2023-05-11T01:04:31.665Z,14.70
2023-05-11T01:05:04.737Z,14.70
2023-05-11T01:05:49.607Z,14.70
2023-05-11T01:06:29.517Z,14.70
2023-05-11T01:07:11.334Z,14.70
2023-05-11T01:07:55.738Z,14.70
2023-05-11T01:08:39.413Z,14.70
2023-05-11T01:09:21.662Z,14.70
2023-05-11T01:10:02.789Z,14.70
2023-05-11T01:10:45.911Z,14.70
2023-05-11T01:11:25.115Z,14.70
2023-05-11T01:12:07.544Z,14.70
2023-05-11T01:12:48.313Z,14.70
2023-05-11T01:13:28.576Z,14.70
2023-05-11T01:14:16.866Z,14.70
2023-05-11T01:15:01.677Z,14.70
2023-05-11T01:15:44.902Z,14.70
2023-05-11T01:16:22.564Z,14.70
2023-05-11T01:17:07.069Z,14.70
2023-05-11T01:18:01.730Z,14.60
2023-05-11T01:18:39.927Z,14.60
2023-05-11T01:19:24.706Z,14.60
2023-05-11T01:20:06.211Z,14.60
2023-05-11T01:20:41.135Z,14.60
2023-05-11T01:21:16.018Z,14.60
2023-05-11T01:21:51.224Z,14.60
2023-05-11T01:22:39.249Z,14.60
2023-05-11T01:23:31.921Z,14.60
2023-05-11T01:24:21.634Z,14.60
2023-05-11T01:25:07.244Z,14.60
2023-05-11T01:25:53.512Z,14.50
2023-05-11T01:26:42.691Z,14.50
2023-05-11T01:27:32.036Z,14.50
2023-05-11T01:28:23.433Z,14.60
2023-05-11T01:29:25.117Z,14.50
2023-05-11T01:30:26.411Z,14.50
2023-05-11T01:31:07.117Z,14.50
2023-05-11T01:31:42.651Z,14.50
2023-05-11T01:32:21.250Z,14.50
2023-05-11T01:32:58.992Z,14.50
2023-05-11T01:33:34.428Z,14.50
2023-05-11T01:34:13.467Z,14.50
2023-05-11T01:34:47.638Z,14.50
2023-05-11T01:35:24.552Z,14.50
2023-05-11T01:36:02.833Z,14.50
2023-05-11T01:36:39.401Z,14.40
2023-05-11T01:37:17.712Z,14.40
2023-05-11T01:37:54.234Z,14.40
2023-05-11T01:38:32.916Z,14.40
2023-05-11T01:39:10.166Z,14.40
2023-05-11T01:39:50.981Z,14.40
2023-05-11T01:40:29.362Z,14.40
2023-05-11T01:41:09.126Z,14.40
2023-05-11T01:41:46.110Z,14.40
2023-05-11T01:42:23.731Z,14.40
2023-05-11T01:43:01.591Z,14.40
2023-05-11T01:43:37.219Z,14.40
2023-05-11T01:44:12.580Z,14.40
2023-05-11T01:44:51.886Z,14.40
2023-05-11T01:45:28.264Z,14.40
2023-05-11T01:46:04.095Z,14.40
2023-05-11T01:46:37.010Z,14.40
2023-05-11T01:47:10.791Z,14.40
2023-05-11T01:47:45.991Z,14.40
2023-05-11T01:48:23.914Z,14.40
2023-05-11T01:48:58.654Z,14.40
2023-05-11T01:49:36.232Z,14.40
2023-05-11T01:50:11.145Z,14.30
2023-05-11T01:50:46.133Z,14.40
2023-05-11T01:51:20.245Z,14.30
2023-05-11T01:51:56.289Z,14.40
2023-05-11T01:52:31.045Z,14.30
2023-05-11T01:53:05.436Z,14.30
2023-05-11T01:53:41.239Z,14.30
2023-05-11T01:54:14.756Z,14.30
2023-05-11T01:54:48.899Z,14.40
2023-05-11T01:55:25.008Z,14.40
2023-05-11T01:55:58.531Z,14.30
2023-05-11T01:56:34.758Z,14.40
2023-05-11T01:57:10.285Z,14.30
2023-05-11T01:57:43.689Z,14.30
2023-05-11T01:58:18.344Z,14.30
2023-05-11T01:58:52.974Z,14.30
2023-05-11T01:59:26.955Z,14.30
2023-05-11T02:00:00.299Z,14.30
2023-05-11T02:00:34.903Z,14.30
2023-05-11T02:01:12.247Z,14.30
2023-05-11T02:01:45.192Z,14.30
2023-05-11T02:02:19.974Z,14.30
2023-05-11T02:02:57.861Z,14.30
2023-05-11T02:03:32.084Z,14.30
2023-05-11T02:04:06.063Z,14.30
2023-05-11T02:04:41.617Z,14.30
2023-05-11T02:05:18.656Z,14.30
2023-05-11T02:05:52.744Z,14.30
2023-05-11T02:06:28.371Z,14.30
2023-05-11T02:07:04.145Z,14.30
2023-05-11T02:07:38.674Z,14.30
2023-05-11T02:08:13.909Z,14.30
2023-05-11T02:08:49.911Z,14.30
2023-05-11T02:09:23.921Z,14.30
2023-05-11T02:09:59.139Z,14.30
2023-05-11T02:10:34.572Z,14.30
2023-05-11T02:11:11.627Z,14.20
2023-05-11T02:11:47.316Z,14.30
2023-05-11T02:12:23.790Z,14.30
2023-05-11T02:12:59.547Z,14.30
2023-05-11T02:13:34.925Z,14.30
2023-05-11T02:14:10.198Z,14.30
2023-05-11T02:14:43.687Z,14.30
2023-05-11T02:15:18.763Z,14.30
2023-05-11T02:15:55.868Z,14.30
2023-05-11T02:16:32.711Z,14.30
2023-05-11T02:17:06.768Z,14.30
2023-05-11T02:17:40.296Z,14.20
2023-05-11T02:18:17.051Z,14.30
2023-05-11T02:18:51.590Z,14.30
2023-05-11T02:19:25.200Z,14.30
2023-05-11T02:19:59.042Z,14.30
2023-05-11T02:20:34.710Z,14.30
2023-05-11T02:21:09.458Z,14.30
2023-05-11T02:21:46.161Z,14.30
2023-05-11T02:22:20.726Z,14.30
2023-05-11T02:22:55.099Z,14.30
2023-05-11T02:23:31.088Z,14.30
2023-05-11T02:24:06.612Z,14.30
2023-05-11T02:24:40.125Z,14.30
2023-05-11T02:25:15.320Z,14.30
2023-05-11T02:25:50.201Z,14.30
2023-05-11T02:26:23.370Z,14.30
2023-05-11T02:26:59.085Z,14.30
2023-05-11T02:27:33.110Z,14.30
2023-05-11T02:28:06.251Z,14.30
2023-05-11T02:28:40.018Z,14.30
2023-05-11T02:29:12.712Z,14.30
2023-05-11T02:29:45.323Z,14.30
2023-05-11T02:30:19.351Z,14.30
2023-05-11T02:30:58.459Z,14.30
2023-05-11T02:31:36.803Z,14.30
2023-05-11T02:32:14.002Z,14.30
2023-05-11T02:32:51.732Z,14.30
2023-05-11T02:33:28.584Z,14.30
2023-05-11T02:34:09.160Z,14.30
2023-05-11T02:34:43.950Z,14.40
2023-05-11T02:35:22.345Z,14.30
2023-05-11T02:35:57.816Z,14.30
2023-05-11T02:36:36.052Z,14.40
2023-05-11T02:37:13.417Z,14.40
2023-05-11T02:37:49.590Z,14.40
2023-05-11T02:38:28.890Z,14.30
2023-05-11T02:39:07.274Z,14.30
2023-05-11T02:39:45.480Z,14.40
2023-05-11T02:40:20.217Z,14.40
2023-05-11T02:40:58.859Z,14.30
2023-05-11T02:41:33.569Z,14.30
2023-05-11T02:42:13.313Z,14.40
2023-05-11T02:42:49.901Z,14.40
2023-05-11T02:43:27.063Z,14.40
2023-05-11T02:44:06.650Z,14.40
2023-05-11T02:44:51.178Z,14.40
2023-05-11T02:45:29.484Z,14.40
2023-05-11T02:46:08.115Z,14.40
2023-05-11T02:46:43.417Z,14.40
2023-05-11T02:47:21.200Z,14.40
2023-05-11T02:47:56.345Z,14.40
2023-05-11T02:48:36.411Z,14.40
2023-05-11T02:49:11.640Z,14.40
2023-05-11T02:49:47.416Z,14.40
2023-05-11T02:50:20.926Z,14.40
2023-05-11T02:50:57.615Z,14.40
2023-05-11T02:51:36.270Z,14.50
2023-05-11T02:52:11.019Z,14.40
2023-05-11T02:52:52.708Z,14.40
2023-05-11T02:53:28.138Z,14.40
2023-05-11T02:54:01.799Z,14.50
2023-05-11T02:54:40.452Z,14.50
2023-05-11T02:55:15.355Z,14.50
2023-05-11T02:55:48.831Z,14.50
2023-05-11T02:56:23.182Z,14.50
2023-05-11T02:56:58.623Z,14.50
2023-05-11T02:57:31.958Z,14.50
2023-05-11T02:58:10.643Z,14.50
2023-05-11T02:58:45.682Z,14.50
2023-05-11T02:59:28.360Z,14.50
2023-05-11T03:00:03.888Z,14.50
2023-05-11T03:00:38.862Z,14.50
2023-05-11T03:01:13.903Z,14.50
2023-05-11T03:01:47.999Z,14.50
2023-05-11T03:02:20.915Z,14.50
2023-05-11T03:02:53.787Z,14.50
2023-05-11T03:03:29.560Z,14.50
2023-05-11T03:04:04.980Z,14.50
2023-05-11T03:04:38.764Z,14.60
2023-05-11T03:05:12.382Z,14.60
2023-05-11T03:05:45.076Z,14.60
2023-05-11T03:06:17.698Z,14.60
2023-05-11T03:06:52.007Z,14.60
2023-05-11T03:07:24.922Z,14.60
2023-05-11T03:07:59.859Z,14.60
2023-05-11T03:08:32.560Z,14.60
2023-05-11T03:09:10.242Z,14.60
2023-05-11T03:09:47.864Z,14.60
2023-05-11T03:10:21.408Z,14.60
2023-05-11T03:10:56.188Z,14.60
2023-05-11T03:11:29.357Z,14.70
2023-05-11T03:12:02.757Z,14.60
2023-05-11T03:12:39.211Z,14.70
2023-05-11T03:13:13.409Z,14.70
2023-05-11T03:13:46.722Z,14.70
2023-05-11T03:14:23.850Z,14.70
2023-05-11T03:14:56.663Z,14.70
2023-05-11T03:15:29.600Z,14.70
2023-05-11T03:16:04.042Z,14.70
2023-05-11T03:16:40.729Z,14.70
2023-05-11T03:17:15.177Z,14.70
2023-05-11T03:17:50.321Z,14.70
2023-05-11T03:18:23.671Z,14.70
2023-05-11T03:18:57.716Z,14.80
2023-05-11T03:19:33.030Z,14.70
2023-05-11T03:20:08.554Z,14.70
2023-05-11T03:20:43.412Z,14.70
2023-05-11T03:21:20.895Z,14.70
2023-05-11T03:21:54.621Z,14.80
2023-05-11T03:22:29.098Z,14.80
2023-05-11T03:23:02.363Z,14.80
2023-05-11T03:23:36.419Z,14.80
2023-05-11T03:24:10.624Z,14.80
2023-05-11T03:24:44.038Z,14.90
2023-05-11T03:25:17.539Z,14.90
2023-05-11T03:25:52.431Z,14.80
2023-05-11T03:26:28.641Z,14.90
2023-05-11T03:27:04.965Z,14.90
2023-05-11T03:27:42.503Z,14.90
2023-05-11T03:28:17.728Z,14.90
2023-05-11T03:29:01.339Z,14.90
2023-05-11T03:29:38.651Z,14.90
2023-05-11T03:30:14.168Z,14.90
2023-05-11T03:30:52.261Z,15.00
2023-05-11T03:31:25.902Z,15.00
2023-05-11T03:32:00.347Z,15.00
2023-05-11T03:32:34.254Z,15.00
2023-05-11T03:33:08.792Z,15.00
2023-05-11T03:33:41.491Z,15.00
2023-05-11T03:34:14.889Z,15.00
2023-05-11T03:34:50.788Z,15.00
2023-05-11T03:35:29.442Z,15.00
2023-05-11T03:36:04.959Z,15.00
2023-05-11T03:36:41.763Z,15.10
2023-05-11T03:37:18.007Z,15.00
2023-05-11T03:37:53.004Z,15.10
2023-05-11T03:38:30.082Z,15.10
2023-05-11T03:39:04.606Z,15.10
2023-05-11T03:39:39.842Z,15.10
2023-05-11T03:40:16.416Z,15.10
2023-05-11T03:40:56.313Z,15.10
2023-05-11T03:41:32.404Z,15.10
2023-05-11T03:42:08.204Z,15.10
2023-05-11T03:42:43.791Z,15.20
2023-05-11T03:43:19.493Z,15.20
2023-05-11T03:43:55.924Z,15.20
2023-05-11T03:44:32.020Z,15.20
2023-05-11T03:45:08.141Z,15.20
2023-05-11T03:45:44.448Z,15.20
2023-05-11T03:46:20.932Z,15.20
2023-05-11T03:46:54.925Z,15.30
2023-05-11T03:47:32.593Z,15.30
2023-05-11T03:48:07.202Z,15.30
2023-05-11T03:48:41.060Z,15.30
2023-05-11T03:49:15.369Z,15.30
2023-05-11T03:49:48.920Z,15.30
2023-05-11T03:50:22.120Z,15.30
2023-05-11T03:50:56.759Z,15.30
2023-05-11T03:51:31.942Z,15.30
2023-05-11T03:52:05.805Z,15.30
2023-05-11T03:52:40.291Z,15.30
2023-05-11T03:53:13.585Z,15.30
2023-05-11T03:53:46.580Z,15.30
2023-05-11T03:54:22.214Z,15.40
2023-05-11T03:54:55.033Z,15.40
2023-05-11T03:55:27.800Z,15.40
2023-05-11T03:56:02.001Z,15.40
2023-05-11T03:56:36.910Z,15.40
2023-05-11T03:57:09.781Z,15.40
2023-05-11T03:57:44.216Z,15.40
2023-05-11T03:58:17.351Z,15.50
2023-05-11T03:58:51.017Z,15.40
2023-05-11T03:59:25.264Z,15.50
2023-05-11T03:59:58.000Z,15.50
2023-05-11T04:00:31.053Z,15.50
2023-05-11T04:01:04.326Z,15.50
2023-05-11T04:01:38.215Z,15.50
2023-05-11T04:02:11.063Z,15.50
2023-05-11T04:02:45.315Z,15.50
2023-05-11T04:03:19.753Z,15.60
2023-05-11T04:03:53.911Z,15.60
2023-05-11T04:04:31.501Z,15.60
2023-05-11T04:05:09.352Z,15.60
2023-05-11T04:05:41.951Z,15.60
2023-05-11T04:06:18.588Z,15.60
2023-05-11T04:06:57.821Z,15.60
2023-05-11T04:07:33.059Z,15.70
2023-05-11T04:08:06.560Z,15.60
2023-05-11T04:08:40.532Z,15.60
2023-05-11T04:09:13.296Z,15.70
2023-05-11T04:09:46.258Z,15.70
2023-05-11T04:10:20.151Z,15.70
2023-05-11T04:10:53.303Z,15.70
2023-05-11T04:11:27.745Z,15.80
2023-05-11T04:12:01.747Z,15.80
2023-05-11T04:12:34.735Z,15.80
2023-05-11T04:13:07.429Z,15.80
2023-05-11T04:13:41.113Z,15.80
2023-05-11T04:14:13.875Z,15.80
2023-05-11T04:14:47.845Z,15.80
2023-05-11T04:15:21.620Z,15.80
2023-05-11T04:15:54.458Z,15.90
2023-05-11T04:16:27.174Z,15.90
2023-05-11T04:17:01.697Z,15.90
2023-05-11T04:17:34.304Z,15.90
2023-05-11T04:18:08.458Z,15.90
2023-05-11T04:18:41.314Z,15.90
2023-05-11T04:19:16.521Z,15.90
2023-05-11T04:19:49.254Z,15.90
2023-05-11T04:20:23.008Z,15.90
2023-05-11T04:20:55.983Z,15.90
2023-05-11T04:21:28.534Z,15.90
2023-05-11T04:22:02.211Z,16.00
2023-05-11T04:22:34.884Z,15.90
2023-05-11T04:23:10.298Z,15.90
2023-05-11T04:23:44.255Z,16.00
2023-05-11T04:24:16.864Z,16.00
2023-05-11T04:24:49.383Z,16.00
2023-05-11T04:25:21.998Z,16.00
2023-05-11T04:25:55.746Z,16.00
2023-05-11T04:26:28.603Z,16.00
2023-05-11T04:27:04.216Z,16.00
2023-05-11T04:27:38.010Z,16.00
2023-05-11T04:28:10.763Z,16.00
2023-05-11T04:28:43.666Z,16.00
2023-05-11T04:29:17.411Z,16.10
2023-05-11T04:29:50.006Z,16.00
2023-05-11T04:30:24.314Z,16.10
2023-05-11T04:30:57.796Z,16.10
2023-05-11T04:31:30.642Z,16.10
2023-05-11T04:32:06.622Z,16.10
2023-05-11T04:32:39.411Z,16.10
2023-05-11T04:33:14.694Z,16.10
2023-05-11T04:33:49.705Z,16.20
2023-05-11T04:34:22.811Z,16.20
2023-05-11T04:34:55.591Z,16.20
2023-05-11T04:35:31.430Z,16.20
2023-05-11T04:36:04.625Z,16.20
2023-05-11T04:36:37.230Z,16.20
2023-05-11T04:37:10.862Z,16.30
2023-05-11T04:37:44.540Z,16.20
2023-05-11T04:38:17.939Z,16.30
2023-05-11T04:38:53.406Z,16.30
2023-05-11T04:39:26.844Z,16.30
2023-05-11T04:39:59.616Z,16.30
2023-05-11T04:40:34.991Z,16.30
2023-05-11T04:41:08.950Z,16.30
2023-05-11T04:41:43.689Z,16.30
2023-05-11T04:42:16.327Z,16.30
2023-05-11T04:42:52.098Z,16.30
2023-05-11T04:43:26.614Z,16.30
2023-05-11T04:44:00.005Z,16.30
2023-05-11T04:44:33.173Z,16.30
2023-05-11T04:45:07.898Z,16.30
2023-05-11T04:45:40.707Z,16.30
2023-05-11T04:46:16.271Z,16.30
2023-05-11T04:46:50.161Z,16.30
2023-05-11T04:47:22.827Z,16.30
2023-05-11T04:47:58.713Z,16.40
2023-05-11T04:48:34.344Z,16.30
2023-05-11T04:49:07.171Z,16.40
2023-05-11T04:49:41.943Z,16.30
2023-05-11T04:50:15.514Z,16.30
2023-05-11T04:50:48.173Z,16.30
2023-05-11T04:51:22.701Z,16.30
2023-05-11T04:51:57.161Z,16.30
2023-05-11T04:52:29.709Z,16.30
2023-05-11T04:53:02.298Z,16.30
2023-05-11T04:53:36.522Z,16.30
2023-05-11T04:54:10.469Z,16.30
2023-05-11T04:54:44.088Z,16.30
2023-05-11T04:55:17.031Z,16.40
2023-05-11T04:55:49.818Z,16.40
2023-05-11T04:56:23.473Z,16.40
2023-05-11T04:56:57.057Z,16.40
2023-05-11T04:57:29.828Z,16.50
2023-05-11T04:58:04.031Z,16.50
2023-05-11T04:58:36.602Z,16.50
2023-05-11T04:59:09.114Z,16.50
2023-05-11T04:59:43.003Z,16.60
2023-05-11T05:01:58.462Z,16.60
2023-05-11T05:02:31.114Z,16.80
2023-05-11T05:03:05.019Z,16.80
2023-05-11T05:03:39.958Z,16.80
2023-05-11T05:04:12.692Z,16.80
2023-05-11T05:04:46.370Z,16.80
2023-05-11T05:05:19.212Z,16.80
2023-05-11T05:05:51.798Z,16.80
2023-05-11T05:06:28.165Z,16.80
2023-05-11T05:07:00.884Z,16.80
2023-05-11T05:07:33.485Z,16.80
2023-05-11T05:08:07.629Z,16.80
2023-05-11T05:08:40.366Z,16.80
2023-05-11T05:09:13.272Z,16.80
2023-05-11T05:09:46.883Z,16.80
2023-05-11T05:10:22.101Z,16.90
2023-05-11T05:10:54.804Z,16.90
2023-05-11T05:11:28.706Z,16.90
2023-05-11T05:12:01.961Z,16.90
2023-05-11T05:12:34.608Z,16.90
2023-05-11T05:13:08.489Z,16.90
2023-05-11T05:13:41.410Z,16.90
2023-05-11T05:14:14.062Z,16.90
2023-05-11T05:14:47.660Z,16.90
2023-05-11T05:15:21.451Z,16.90
2023-05-11T05:15:54.156Z,16.90
2023-05-11T05:16:29.012Z,16.90
2023-05-11T05:17:02.785Z,16.90
2023-05-11T05:17:35.652Z,16.90
2023-05-11T05:18:10.050Z,16.90
2023-05-11T05:18:45.676Z,16.90
2023-05-11T05:19:18.410Z,16.90
2023-05-11T05:19:52.011Z,16.90
2023-05-11T05:20:24.609Z,16.90
2023-05-11T05:20:57.210Z,16.90
2023-05-11T05:21:32.432Z,16.90
2023-05-11T05:22:05.521Z,16.90
2023-05-11T05:22:38.477Z,16.90
2023-05-11T05:23:12.381Z,16.90
2023-05-11T05:23:44.887Z,16.90
2023-05-11T05:24:17.499Z,16.90
2023-05-11T05:24:50.461Z,16.90
2023-05-11T05:25:24.220Z,16.90
2023-05-11T05:25:56.791Z,16.90
2023-05-11T05:26:29.819Z,16.90
2023-05-11T05:27:04.124Z,17.00
2023-05-11T05:27:36.975Z,17.00
2023-05-11T05:28:12.877Z,17.00
2023-05-11T05:28:46.514Z,17.00
2023-05-11T05:29:21.190Z,17.00
2023-05-11T05:29:54.492Z,17.00
2023-05-11T05:30:30.499Z,17.00
2023-05-11T05:31:03.184Z,17.00
2023-05-11T05:31:36.160Z,17.00
2023-05-11T05:32:09.903Z,17.00
2023-05-11T05:32:42.731Z,17.00
2023-05-11T05:33:15.878Z,17.10
2023-05-11T05:33:51.201Z,17.10
2023-05-11T05:34:24.078Z,17.10
2023-05-11T05:34:56.657Z,17.10
2023-05-11T05:35:30.290Z,17.10
2023-05-11T05:36:03.513Z,17.20
2023-05-11T05:36:36.438Z,17.20
2023-05-11T05:37:10.098Z,17.20
2023-05-11T05:37:42.750Z,17.20
2023-05-11T05:38:15.552Z,17.30
2023-05-11T05:38:51.185Z,17.30
2023-05-11T05:39:24.792Z,17.30
2023-05-11T05:40:00.592Z,17.30
2023-05-11T05:40:37.581Z,17.30
2023-05-11T05:41:10.255Z,17.40
2023-05-11T05:41:45.941Z,17.40
2023-05-11T05:42:20.078Z,17.40
2023-05-11T05:42:53.098Z,17.40
2023-05-11T05:43:30.458Z,17.50
2023-05-11T05:44:04.148Z,17.50
2023-05-11T05:44:37.598Z,17.50
2023-05-11T05:45:14.560Z,17.50
2023-05-11T05:45:47.681Z,17.50
2023-05-11T05:46:21.795Z,17.60
2023-05-11T05:46:55.405Z,17.60
2023-05-11T05:47:30.534Z,17.60
2023-05-11T05:48:06.268Z,17.60
2023-05-11T05:48:39.840Z,17.70
2023-05-11T05:49:15.144Z,17.70
2023-05-11T05:49:48.406Z,17.70
2023-05-11T05:50:20.997Z,17.70
2023-05-11T05:50:54.846Z,17.80
2023-05-11T05:51:27.523Z,17.80
2023-05-11T05:52:00.498Z,17.80
2023-05-11T05:52:34.360Z,17.80
2023-05-11T05:53:08.138Z,17.90
2023-05-11T05:53:41.759Z,17.90
2023-05-11T05:54:16.471Z,18.00
2023-05-11T05:54:49.383Z,18.00
2023-05-11T05:55:22.583Z,18.10
2023-05-11T05:55:57.286Z,18.20
2023-05-11T05:56:30.225Z,18.20
2023-05-11T05:57:02.766Z,18.30
2023-05-11T05:57:36.778Z,18.40
2023-05-11T05:58:10.233Z,18.40
2023-05-11T05:58:43.583Z,18.50
2023-05-11T05:59:19.707Z,18.60
2023-05-11T05:59:52.371Z,18.60
2023-05-11T06:00:26.201Z,18.70
2023-05-11T06:01:08.210Z,18.70
2023-05-11T06:01:46.154Z,18.80
2023-05-11T06:02:20.612Z,18.80
2023-05-11T06:02:54.922Z,18.80
2023-05-11T06:03:31.585Z,18.90
2023-05-11T06:04:40.175Z,18.90
2023-05-11T06:05:12.873Z,18.90
2023-05-11T06:05:49.370Z,18.90
2023-05-11T06:06:21.954Z,19.00
2023-05-11T06:06:56.120Z,18.90
2023-05-11T06:07:30.381Z,18.90
2023-05-11T06:08:43.580Z,19.00
2023-05-11T06:09:17.625Z,19.00
2023-05-11T06:09:53.110Z,18.90
2023-05-11T06:10:26.211Z,19.00
2023-05-11T06:10:59.861Z,18.90
2023-05-11T06:11:32.445Z,18.90
2023-05-11T06:12:06.266Z,18.90
2023-05-11T06:12:42.728Z,18.90
2023-05-11T06:13:15.859Z,18.90
2023-05-11T06:13:52.093Z,18.90
2023-05-11T06:14:25.043Z,18.90
2023-05-11T06:14:58.362Z,18.90
2023-05-11T06:15:32.457Z,18.90
2023-05-11T06:16:13.262Z,18.90
2023-05-11T06:16:47.076Z,18.90
2023-05-11T06:17:19.750Z,18.90
2023-05-11T06:17:53.424Z,18.90
2023-05-11T06:18:26.511Z,18.90
2023-05-11T06:19:00.932Z,18.90
2023-05-11T06:19:34.385Z,18.90
2023-05-11T06:20:11.217Z,18.90
2023-05-11T06:20:43.722Z,18.90
2023-05-11T06:21:18.881Z,18.90
2023-05-11T06:21:51.663Z,18.90
2023-05-11T06:22:25.125Z,18.90
2023-05-11T06:22:58.904Z,18.90
2023-05-11T06:23:32.047Z,18.90
2023-05-11T06:24:07.216Z,18.90
2023-05-11T06:24:41.344Z,18.90
2023-05-11T06:25:14.112Z,18.90
2023-05-11T06:25:47.857Z,19.00
2023-05-11T06:26:21.517Z,19.00
2023-05-11T06:26:55.207Z,19.00
2023-05-11T06:27:29.691Z,19.00
2023-05-11T06:28:03.658Z,19.00
2023-05-11T06:28:36.520Z,19.00
2023-05-11T06:29:13.480Z,19.00
2023-05-11T06:29:46.940Z,19.10
2023-05-11T06:30:20.809Z,19.10
2023-05-11T06:30:59.323Z,19.10
2023-05-11T06:31:34.451Z,19.10
2023-05-11T06:32:07.558Z,19.10
2023-05-11T06:32:41.405Z,19.20
2023-05-11T06:33:14.516Z,19.20
2023-05-11T06:33:47.594Z,19.20
2023-05-11T06:34:28.539Z,19.20
2023-05-11T06:36:18.223Z,19.30
2023-05-11T06:36:51.819Z,19.40
2023-05-11T06:37:24.479Z,19.40
2023-05-11T06:37:58.475Z,19.50
2023-05-11T06:38:31.573Z,19.50
2023-05-11T06:39:06.964Z,19.50
2023-05-11T06:41:26.909Z,19.60
2023-05-11T06:43:15.726Z,19.80
2023-05-11T06:43:52.128Z,20.00
2023-05-11T06:44:34.289Z,20.00
2023-05-11T06:45:08.478Z,20.10
2023-05-11T08:46:03.362Z,22.50
2023-05-11T08:48:31.699Z,21.90
2023-05-11T08:49:04.404Z,21.70
2023-05-11T08:49:37.595Z,21.60
2023-05-11T08:50:11.868Z,21.60
2023-05-11T08:50:45.800Z,21.60
2023-05-11T08:51:19.639Z,21.60
2023-05-11T08:51:53.800Z,21.50
2023-05-11T08:52:27.836Z,21.50
2023-05-11T08:53:00.621Z,21.50
2023-05-11T08:53:34.228Z,21.50
2023-05-11T08:54:07.562Z,21.50
2023-05-11T08:54:40.199Z,21.40
2023-05-11T08:55:14.188Z,21.40
2023-05-11T08:55:48.091Z,21.40
2023-05-11T08:56:24.090Z,21.40
2023-05-11T08:57:32.319Z,21.30
2023-05-11T08:58:08.256Z,21.30
2023-05-11T08:58:43.157Z,21.30
2023-05-11T08:59:16.085Z,22.90
2023-05-11T09:13:32.051Z,21.20
2023-05-11T09:14:05.828Z,21.60
2023-05-11T09:14:38.440Z,21.70
2023-05-11T09:15:13.105Z,21.70
2023-05-11T09:15:46.721Z,21.80
2023-05-11T09:16:32.895Z,21.80
2023-05-11T09:17:10.219Z,21.90
2023-05-11T09:17:42.867Z,21.90
2023-05-11T09:18:15.549Z,22.00
2023-05-11T09:18:50.893Z,22.00
2023-05-11T09:19:23.410Z,22.00
2023-05-11T09:20:00.694Z,22.00
2023-05-11T09:20:35.482Z,22.00
2023-05-11T09:21:08.138Z,22.00
2023-05-11T09:21:40.654Z,22.00
2023-05-11T09:22:15.804Z,22.00
2023-05-11T09:22:48.749Z,22.00
2023-05-11T09:23:26.628Z,22.00
2023-05-11T09:24:00.884Z,22.10
2023-05-11T09:24:33.613Z,22.10
2023-05-11T09:25:07.982Z,22.20
2023-05-11T09:25:40.945Z,22.20
2023-05-11T09:26:18.337Z,22.20
2023-05-11T09:27:05.980Z,22.20
2023-05-11T09:27:43.468Z,22.20
2023-05-11T09:28:25.459Z,22.30
2023-05-11T09:29:03.069Z,22.30
2023-05-11T09:29:36.521Z,22.40
2023-05-11T09:30:21.677Z,22.40
2023-05-11T09:30:55.873Z,22.50
2023-05-11T09:31:39.692Z,22.50
2023-05-11T09:32:12.726Z,22.60
2023-05-11T09:32:51.005Z,22.70
2023-05-11T09:33:24.800Z,22.70
2023-05-11T09:34:14.231Z,22.70
2023-05-11T09:34:46.870Z,22.70
2023-05-11T09:35:22.130Z,22.80
2023-05-11T09:35:54.864Z,22.80
2023-05-11T09:36:28.477Z,22.80
2023-05-11T09:37:01.205Z,22.80
2023-05-11T09:37:35.253Z,22.80
2023-05-11T09:38:10.671Z,22.90
2023-05-11T09:38:43.495Z,22.90
2023-05-11T09:39:29.303Z,22.90
2023-05-11T09:40:52.487Z,22.90
2023-05-11T09:41:26.425Z,22.90
2023-05-11T09:42:15.821Z,22.80
2023-05-11T09:42:49.469Z,22.80
2023-05-11T09:43:23.894Z,22.80
2023-05-11T09:44:06.236Z,22.70
2023-05-11T09:44:41.737Z,22.70
2023-05-11T09:45:15.636Z,22.60
2023-05-11T09:45:50.205Z,22.60
2023-05-11T09:46:23.814Z,22.60
2023-05-11T09:47:11.922Z,22.60
2023-05-11T09:47:47.676Z,22.60
2023-05-11T09:48:27.147Z,22.60
2023-05-11T09:49:01.670Z,22.60
2023-05-11T09:49:34.885Z,22.60
2023-05-11T09:50:18.810Z,22.70
2023-05-11T09:51:04.126Z,22.70
2023-05-11T09:51:39.044Z,22.70
2023-05-11T09:52:12.174Z,22.80
2023-05-11T09:52:51.393Z,22.80
2023-05-11T09:53:36.391Z,22.90
2023-05-11T09:54:19.530Z,22.90
2023-05-11T09:54:53.470Z,22.90
2023-05-11T09:55:26.311Z,22.90
2023-05-11T09:55:58.888Z,22.80
2023-05-11T09:56:47.355Z,22.80
2023-05-11T09:57:24.842Z,22.80